Time;durP1;ratioP1;P1;durP2;ratioP2;P2;SDS_P1;SDS_P2;PMS_P1;PMS_P2;Temp;Humidity;BMP_temperature;BMP_pressure;BME280_temperature;BME280_humidity;BME280_pressure;Samples;Min_cycle;Max_cycle;Signal;HPM_P1;HPM_P2
2021/12/31 00:02:22;;;;;;;6.07;3.22;;;15.00;86.70;;;;;;4994416;28;20025;-93
2021/12/31 00:04:49;;;;;;;6.40;3.88;;;15.00;86.70;;;;;;4996243;28;20040;-93
2021/12/31 00:07:15;;;;;;;6.97;3.78;;;15.10;86.70;;;;;;4999796;28;20110;-92
2021/12/31 00:09:41;;;;;;;6.07;3.40;;;15.10;86.80;;;;;;4995295;28;20054;-92
2021/12/31 00:12:10;;;;;;;5.32;3.33;;;15.00;86.70;;;;;;4995331;28;20018;-92
2021/12/31 00:14:36;;;;;;;4.97;3.30;;;15.00;86.70;;;;;;4994008;28;20436;-93
2021/12/31 00:17:03;;;;;;;5.53;3.22;;;15.10;86.70;;;;;;4994942;28;20038;-93
2021/12/31 00:19:31;;;;;;;5.07;3.55;;;15.10;86.70;;;;;;4994608;28;20022;-92
2021/12/31 00:22:05;;;;;;;4.85;3.20;;;15.10;86.60;;;;;;4996880;28;20033;-93
2021/12/31 00:24:31;;;;;;;5.00;3.30;;;15.00;86.40;;;;;;4993864;28;20081;-92
2021/12/31 00:26:56;;;;;;;5.78;3.40;;;15.00;86.50;;;;;;4995001;28;20053;-92
2021/12/31 00:29:22;;;;;;;4.85;2.92;;;15.00;86.60;;;;;;4994641;28;20481;-92
2021/12/31 00:31:47;;;;;;;5.35;2.70;;;15.00;86.60;;;;;;5005688;28;20018;-94
2021/12/31 00:34:13;;;;;;;3.47;2.30;;;15.00;86.50;;;;;;4993937;28;20049;-92
2021/12/31 00:36:47;;;;;;;6.30;3.45;;;15.10;86.50;;;;;;4975374;28;20027;-93
2021/12/31 00:39:14;;;;;;;6.05;3.35;;;15.00;86.40;;;;;;4983367;28;20093;-94
2021/12/31 00:41:40;;;;;;;6.10;3.13;;;15.00;86.20;;;;;;4995019;28;20394;-94
2021/12/31 00:44:06;;;;;;;5.13;2.50;;;14.90;86.30;;;;;;4994836;28;20030;-94
2021/12/31 00:46:32;;;;;;;5.40;2.55;;;15.00;87.00;;;;;;5003021;28;20026;-93
2021/12/31 00:49:02;;;;;;;4.32;2.10;;;14.90;86.20;;;;;;4989836;28;20034;-92
2021/12/31 00:51:27;;;;;;;4.28;2.25;;;14.90;86.30;;;;;;4973791;28;20082;-90
2021/12/31 00:53:53;;;;;;;4.95;2.42;;;14.90;86.30;;;;;;4989310;28;20030;-91
2021/12/31 00:56:19;;;;;;;6.82;2.92;;;14.90;86.30;;;;;;4994260;28;20033;-91
2021/12/31 00:58:44;;;;;;;4.53;2.60;;;14.90;86.10;;;;;;4989728;28;20050;-90
2021/12/31 01:01:16;;;;;;;7.80;2.90;;;14.90;86.10;;;;;;4996140;28;20049;-95
2021/12/31 01:03:42;;;;;;;7.30;2.95;;;14.90;86.00;;;;;;5007907;28;20037;-93
2021/12/31 01:06:07;;;;;;;3.28;2.00;;;14.90;85.90;;;;;;5009130;28;20389;-94
2021/12/31 01:08:33;;;;;;;3.65;2.20;;;15.00;85.90;;;;;;4988119;28;20019;-94
2021/12/31 01:10:59;;;;;;;4.60;2.20;;;15.00;85.90;;;;;;4994810;28;20030;-94
2021/12/31 01:13:36;;;;;;;5.20;2.40;;;14.90;85.80;;;;;;4994182;28;20022;-92
2021/12/31 01:16:03;;;;;;;4.28;1.90;;;14.90;85.80;;;;;;4997175;28;20014;-92
2021/12/31 01:19:45;;;;;;;3.63;2.13;;;14.90;85.80;;;;;;5000452;28;20089;-92
2021/12/31 01:21:21;;;;;;;4.10;2.17;;;14.90;85.70;;;;;;4974879;28;20497;-92
2021/12/31 01:23:47;;;;;;;3.03;1.95;;;14.90;85.80;;;;;;4974728;28;20026;-92
2021/12/31 01:26:13;;;;;;;4.43;2.05;;;14.90;85.80;;;;;;4991038;28;20041;-94
2021/12/31 01:28:39;;;;;;;4.97;2.20;;;14.90;85.80;;;;;;4999053;28;20094;-94
2021/12/31 01:31:04;;;;;;;3.40;1.80;;;14.90;85.60;;;;;;5013501;28;20022;-95
2021/12/31 01:33:31;;;;;;;2.78;1.73;;;14.90;85.70;;;;;;5010653;28;20107;-92
2021/12/31 01:35:56;;;;;;;3.28;1.85;;;15.00;85.80;;;;;;4983631;28;20540;-91
2021/12/31 01:38:22;;;;;;;4.88;2.20;;;15.00;85.70;;;;;;4977411;28;20038;-91
2021/12/31 01:40:49;;;;;;;6.88;2.30;;;14.90;85.60;;;;;;4973924;28;20030;-91
2021/12/31 01:43:17;;;;;;;3.85;1.90;;;14.90;85.60;;;;;;4984433;28;20027;-89
2021/12/31 01:45:44;;;;;;;5.35;1.90;;;14.90;85.60;;;;;;5002601;28;20509;-89
2021/12/31 01:48:23;;;;;;;4.18;1.70;;;14.90;85.60;;;;;;5002504;28;20578;-91
2021/12/31 01:50:49;;;;;;;2.83;1.70;;;15.00;85.60;;;;;;4993200;28;20110;-92
2021/12/31 01:53:16;;;;;;;2.67;1.70;;;15.00;85.60;;;;;;4993237;28;20022;-89
2021/12/31 01:55:43;;;;;;;4.05;1.83;;;15.00;85.60;;;;;;4993528;28;20130;-95
2021/12/31 01:58:09;;;;;;;2.67;1.70;;;15.00;85.50;;;;;;4992833;28;20041;-89
2021/12/31 02:00:36;;;;;;;6.43;2.20;;;15.00;85.50;;;;;;5008455;28;20032;-91
2021/12/31 02:03:05;;;;;;;3.88;2.10;;;15.00;85.40;;;;;;5006563;28;20027;-90
2021/12/31 02:05:30;;;;;;;2.97;1.70;;;15.00;85.30;;;;;;4986442;28;20042;-90
2021/12/31 02:07:57;;;;;;;5.05;2.20;;;15.00;85.30;;;;;;4973348;28;20027;-92
2021/12/31 02:10:23;;;;;;;4.88;1.98;;;15.00;85.30;;;;;;4993140;28;20033;-91
2021/12/31 02:12:49;;;;;;;3.40;1.90;;;15.00;85.30;;;;;;5004410;28;20027;-93
2021/12/31 02:15:17;;;;;;;4.10;1.92;;;15.00;85.10;;;;;;4997213;28;20034;-93
2021/12/31 02:17:44;;;;;;;1.90;1.30;;;15.00;85.10;;;;;;5000354;28;20018;-92
2021/12/31 02:20:11;;;;;;;3.92;2.00;;;15.00;85.20;;;;;;4985673;28;20389;-90
2021/12/31 02:22:43;;;;;;;4.30;1.50;;;15.00;85.00;;;;;;4986834;28;20022;-90
2021/12/31 02:25:09;;;;;;;;;;;15.00;85.00;;;;;;4991204;28;20030;-90
2021/12/31 02:27:41;;;;;;;3.25;1.77;;;14.90;84.80;;;;;;5007969;28;19905;-90
2021/12/31 02:30:09;;;;;;;4.20;1.90;;;14.90;84.90;;;;;;4996960;28;20033;-90
2021/12/31 02:32:34;;;;;;;3.22;1.80;;;15.00;84.90;;;;;;4992082;28;20030;-91
2021/12/31 02:35:00;;;;;;;2.30;1.42;;;15.00;84.80;;;;;;4977231;28;20090;-92
2021/12/31 02:37:26;;;;;;;5.00;1.90;;;15.00;84.80;;;;;;4973190;28;20034;-89
2021/12/31 02:39:51;;;;;;;3.55;1.70;;;15.00;84.60;;;;;;4991863;28;20022;-90
2021/12/31 02:42:17;;;;;;;3.80;1.63;;;15.00;84.50;;;;;;4992280;28;20041;-91
2021/12/31 02:44:43;;;;;;;4.57;2.20;;;15.00;84.60;;;;;;4991814;28;20038;-91
2021/12/31 02:47:09;;;;;;;5.20;2.05;;;15.00;84.40;;;;;;4992564;28;20045;-91
2021/12/31 02:49:40;;;;;;;5.68;2.33;;;15.00;84.30;;;;;;4994716;28;20014;-91
2021/12/31 02:52:10;;;;;;;3.35;1.50;;;15.00;84.30;;;;;;4993057;28;20478;-92
2021/12/31 02:54:39;;;;;;;3.92;1.60;;;15.00;84.20;;;;;;4984895;28;20723;-91
2021/12/31 02:57:06;;;;;;;4.00;1.40;;;15.00;84.10;;;;;;4992259;28;20081;-88
2021/12/31 02:59:33;;;;;;;3.70;1.80;;;15.10;84.30;;;;;;4992316;28;20026;-90
2021/12/31 03:02:00;;;;;;;3.17;1.60;;;15.10;84.20;;;;;;4996111;28;20021;-91
2021/12/31 03:04:27;;;;;;;4.93;2.05;;;15.10;84.00;;;;;;4993895;28;20030;-91
2021/12/31 03:06:55;;;;;;;2.65;1.60;;;15.10;84.00;;;;;;4995257;28;20396;-91
2021/12/31 03:09:23;;;;;;;2.08;1.52;;;15.00;83.90;;;;;;4999840;28;20026;-89
2021/12/31 03:11:52;;;;;;;2.65;1.50;;;15.10;84.00;;;;;;4993171;28;20034;-90
2021/12/31 03:14:20;;;;;;;3.13;1.30;;;15.10;83.90;;;;;;5008380;28;20030;-90
2021/12/31 03:16:47;;;;;;;4.05;1.63;;;15.10;83.90;;;;;;4992614;28;20062;-90
2021/12/31 03:19:13;;;;;;;3.78;1.52;;;15.10;83.80;;;;;;4993523;28;20477;-89
2021/12/31 03:21:39;;;;;;;2.38;1.38;;;15.10;83.70;;;;;;4998119;28;20026;-93
2021/12/31 03:24:04;;;;;;;2.63;1.63;;;15.10;83.70;;;;;;4996299;28;20032;-92
2021/12/31 03:26:30;;;;;;;3.22;1.63;;;15.10;83.60;;;;;;4995336;28;20034;-93
2021/12/31 03:28:56;;;;;;;4.18;1.40;;;15.10;83.60;;;;;;5001108;28;20033;-95
2021/12/31 03:31:21;;;;;;;3.08;1.70;;;15.10;83.60;;;;;;5015601;28;20030;-96
2021/12/31 03:33:47;;;;;;;2.65;1.40;;;15.10;83.30;;;;;;4999250;28;20046;-95
2021/12/31 03:36:13;;;;;;;5.13;1.63;;;15.00;83.40;;;;;;4998364;28;20037;-96
2021/12/31 03:38:38;;;;;;;3.05;1.50;;;15.10;83.40;;;;;;4997236;28;20038;-96
2021/12/31 03:41:04;;;;;;;4.35;1.65;;;15.10;83.30;;;;;;4980132;28;20110;-95
2021/12/31 03:43:29;;;;;;;2.13;1.50;;;15.10;83.30;;;;;;4994917;28;20112;-95
2021/12/31 03:45:55;;;;;;;3.08;1.40;;;15.10;83.20;;;;;;4995980;28;20169;-89
2021/12/31 03:48:21;;;;;;;3.38;1.40;;;15.10;83.20;;;;;;4994159;28;20034;-90
2021/12/31 03:50:47;;;;;;;2.67;1.50;;;15.10;83.10;;;;;;4994720;28;20029;-89
2021/12/31 03:53:14;;;;;;;1.95;1.33;;;15.10;82.90;;;;;;4996028;28;20113;-92
2021/12/31 03:55:40;;;;;;;1.63;1.50;;;15.10;83.10;;;;;;4989630;28;20405;-93
2021/12/31 03:58:06;;;;;;;2.90;1.60;;;15.10;83.00;;;;;;4976192;28;20474;-90
2021/12/31 04:00:31;;;;;;;2.80;1.90;;;15.10;82.90;;;;;;4992642;28;20073;-93
2021/12/31 04:02:57;;;;;;;3.42;1.50;;;15.10;83.30;;;;;;4994060;28;20018;-91
2021/12/31 04:05:25;;;;;;;2.03;1.35;;;15.10;82.80;;;;;;4997243;28;20046;-94
2021/12/31 04:07:51;;;;;;;3.15;1.20;;;15.10;82.80;;;;;;4998516;28;20393;-90
2021/12/31 04:10:17;;;;;;;3.45;1.52;;;15.10;82.80;;;;;;4981306;28;20058;-95
2021/12/31 04:12:42;;;;;;;5.03;1.60;;;15.10;82.70;;;;;;4995752;28;20030;-96
2021/12/31 04:15:08;;;;;;;3.50;1.70;;;15.10;82.50;;;;;;4995752;28;20084;-96
2021/12/31 04:17:34;;;;;;;3.40;1.50;;;15.10;82.60;;;;;;5000672;28;20068;-96
2021/12/31 04:19:59;;;;;;;2.25;1.33;;;15.10;82.70;;;;;;5015333;28;20101;-95
2021/12/31 04:22:28;;;;;;;2.45;1.63;;;15.10;82.40;;;;;;4999113;28;20038;-95
2021/12/31 04:24:53;;;;;;;3.45;1.58;;;15.10;82.50;;;;;;5005482;28;20033;-96
2021/12/31 04:27:20;;;;;;;4.05;1.50;;;15.10;82.50;;;;;;4998168;28;20057;-95
2021/12/31 04:29:51;;;;;;;3.90;1.73;;;15.10;82.40;;;;;;4998584;28;20153;-95
2021/12/31 04:32:18;;;;;;;5.03;1.50;;;15.10;82.30;;;;;;4985060;28;20073;-95
2021/12/31 04:34:44;;;;;;;2.92;1.30;;;15.00;82.40;;;;;;4988480;28;20026;-95
2021/12/31 04:37:10;;;;;;;2.75;1.60;;;15.10;82.50;;;;;;4996425;28;20034;-95
2021/12/31 04:39:36;;;;;;;3.30;1.52;;;15.10;82.80;;;;;;4997300;28;20036;-95
2021/12/31 04:42:02;;;;;;;2.95;1.60;;;15.00;82.40;;;;;;4987105;28;20042;-95
2021/12/31 04:44:27;;;;;;;5.75;2.40;;;15.00;82.40;;;;;;4998588;28;20022;-96
2021/12/31 04:46:53;;;;;;;5.03;1.80;;;15.00;82.10;;;;;;5006367;28;20145;-94
2021/12/31 04:49:19;;;;;;;4.25;1.75;;;15.00;82.30;;;;;;4999877;28;20113;-96
2021/12/31 04:51:44;;;;;;;4.10;1.60;;;15.00;82.20;;;;;;4995354;28;20019;-96
2021/12/31 04:54:15;;;;;;;2.78;1.50;;;15.00;82.30;;;;;;4995975;28;20053;-95
2021/12/31 04:56:42;;;;;;;1.90;1.30;;;15.00;82.40;;;;;;4996701;28;20033;-95
2021/12/31 04:59:09;;;;;;;3.85;1.90;;;15.00;82.50;;;;;;4997170;28;20117;-96
2021/12/31 05:01:35;;;;;;;3.97;1.88;;;15.00;82.50;;;;;;4995651;28;20113;-94
2021/12/31 05:04:00;;;;;;;3.95;1.50;;;14.90;82.30;;;;;;4993183;28;20118;-93
2021/12/31 05:06:26;;;;;;;3.42;1.90;;;14.90;82.40;;;;;;4993770;28;20030;-92
2021/12/31 05:08:51;;;;;;;2.78;1.38;;;14.90;82.40;;;;;;4994477;28;20666;-90
2021/12/31 05:11:17;;;;;;;2.60;1.90;;;15.00;82.60;;;;;;5008786;28;20444;-90
2021/12/31 05:13:42;;;;;;;2.25;1.50;;;15.00;82.60;;;;;;4994943;28;20104;-92
2021/12/31 05:16:08;;;;;;;2.22;1.50;;;14.90;82.50;;;;;;4992687;28;20050;-91
2021/12/31 05:18:33;;;;;;;2.58;1.60;;;15.00;82.60;;;;;;4983343;28;20037;-88
2021/12/31 05:20:59;;;;;;;3.47;1.60;;;14.90;82.50;;;;;;5005743;28;20380;-92
2021/12/31 05:23:24;;;;;;;2.97;1.75;;;14.90;82.50;;;;;;4995231;28;20035;-94
2021/12/31 05:25:50;;;;;;;5.40;1.90;;;14.90;82.40;;;;;;4993836;28;20509;-93
2021/12/31 05:28:16;;;;;;;4.47;2.00;;;14.90;82.30;;;;;;4993702;28;20137;-93
2021/12/31 05:30:41;;;;;;;3.85;1.98;;;14.90;82.20;;;;;;5003782;28;20026;-93
2021/12/31 05:33:07;;;;;;;4.28;1.70;;;14.90;82.30;;;;;;4994062;28;20081;-92
2021/12/31 05:35:33;;;;;;;4.35;2.00;;;14.90;82.30;;;;;;4982740;28;20027;-93
2021/12/31 05:37:58;;;;;;;4.50;1.85;;;14.90;82.20;;;;;;4998549;28;20409;-95
2021/12/31 05:40:25;;;;;;;3.85;2.03;;;14.90;82.30;;;;;;5007767;28;20092;-94
2021/12/31 05:42:52;;;;;;;2.70;1.60;;;14.90;82.40;;;;;;5000820;28;20025;-96
2021/12/31 05:45:17;;;;;;;3.88;2.20;;;14.90;82.30;;;;;;4998744;28;20050;-92
2021/12/31 05:47:43;;;;;;;4.25;2.03;;;14.90;82.20;;;;;;4994967;28;20053;-93
2021/12/31 05:50:18;;;;;;;4.22;1.90;;;14.90;82.30;;;;;;5014898;28;20027;-95
2021/12/31 05:52:45;;;;;;;4.60;2.10;;;14.80;82.20;;;;;;4999770;28;20053;-96
2021/12/31 05:55:11;;;;;;;5.10;2.35;;;14.80;82.10;;;;;;5005632;28;20048;-95
2021/12/31 05:57:37;;;;;;;4.95;2.00;;;14.70;82.10;;;;;;4993674;28;20113;-95
2021/12/31 06:00:03;;;;;;;3.88;2.10;;;14.70;82.10;;;;;;4994610;28;20038;-92
2021/12/31 06:02:28;;;;;;;2.72;1.90;;;14.70;82.10;;;;;;5007785;28;20022;-94
2021/12/31 06:04:54;;;;;;;3.63;2.13;;;14.70;82.20;;;;;;4993173;28;20045;-93
2021/12/31 06:07:19;;;;;;;4.78;2.25;;;14.70;82.80;;;;;;4993333;28;20470;-92
2021/12/31 06:09:45;;;;;;;3.92;1.90;;;14.70;82.20;;;;;;5011682;28;20053;-92
2021/12/31 06:12:10;;;;;;;3.83;2.10;;;14.70;82.30;;;;;;4993979;28;20034;-93
2021/12/31 06:14:37;;;;;;;5.75;2.42;;;14.70;82.20;;;;;;4991705;28;20448;-93
2021/12/31 06:17:06;;;;;;;4.43;2.28;;;14.70;82.20;;;;;;4997578;28;20034;-92
2021/12/31 06:19:33;;;;;;;4.93;2.25;;;14.70;82.10;;;;;;5011693;28;20022;-93
2021/12/31 06:21:58;;;;;;;2.72;1.88;;;14.70;82.10;;;;;;4993858;28;20488;-88
2021/12/31 06:24:24;;;;;;;4.47;1.92;;;14.70;82.20;;;;;;4996532;28;20015;-90
2021/12/31 06:26:49;;;;;;;3.88;2.00;;;14.70;82.20;;;;;;5000282;28;20041;-90
2021/12/31 06:29:15;;;;;;;3.90;2.10;;;14.60;82.20;;;;;;4992272;28;20026;-90
2021/12/31 06:31:40;;;;;;;3.78;2.10;;;14.70;82.20;;;;;;4993602;28;20433;-89
2021/12/31 06:34:06;;;;;;;2.92;1.55;;;14.60;82.10;;;;;;5009513;28;20030;-89
2021/12/31 06:36:31;;;;;;;3.50;2.03;;;14.70;82.20;;;;;;4990987;28;20080;-90
2021/12/31 06:39:00;;;;;;;2.75;1.73;;;14.70;82.10;;;;;;4998868;28;20126;-88
2021/12/31 06:41:26;;;;;;;2.97;1.80;;;14.70;82.10;;;;;;4998306;28;20030;-92
2021/12/31 06:43:51;;;;;;;5.22;2.10;;;14.60;82.00;;;;;;5014174;28;20017;-93
2021/12/31 06:46:19;;;;;;;4.18;2.20;;;14.60;82.00;;;;;;5012587;28;20037;-93
2021/12/31 06:48:44;;;;;;;4.63;1.80;;;14.60;82.00;;;;;;4974067;28;20019;-91
2021/12/31 06:51:10;;;;;;;6.57;2.58;;;14.60;82.00;;;;;;4974196;28;20386;-93
2021/12/31 06:53:36;;;;;;;2.42;1.50;;;14.60;81.80;;;;;;4990338;28;20027;-94
2021/12/31 06:56:01;;;;;;;3.45;2.20;;;14.60;81.90;;;;;;4991348;28;20028;-95
2021/12/31 06:58:27;;;;;;;5.00;2.10;;;14.50;81.70;;;;;;4997256;28;20179;-95
2021/12/31 07:00:52;;;;;;;5.47;2.05;;;14.50;81.60;;;;;;5007694;28;20501;-93
2021/12/31 07:03:18;;;;;;;5.25;2.00;;;14.40;81.70;;;;;;4997231;28;20469;-91
2021/12/31 07:05:44;;;;;;;4.28;1.98;;;14.40;81.70;;;;;;4996490;28;20034;-93
2021/12/31 07:08:11;;;;;;;2.70;1.67;;;14.40;81.80;;;;;;4978023;28;20106;-92
2021/12/31 07:10:37;;;;;;;3.65;1.80;;;14.40;81.70;;;;;;4995300;28;20076;-95
2021/12/31 07:13:10;;;;;;;3.03;1.80;;;14.30;81.70;;;;;;4998895;28;20014;-95
2021/12/31 07:15:44;;;;;;;4.88;2.17;;;14.30;81.60;;;;;;4998465;28;20523;-94
2021/12/31 07:18:10;;;;;;;5.43;2.00;;;14.30;81.80;;;;;;4987742;28;20026;-94
2021/12/31 07:20:37;;;;;;;3.92;1.92;;;14.20;81.70;;;;;;4995415;28;20033;-91
2021/12/31 07:23:10;;;;;;;3.97;1.92;;;14.20;81.80;;;;;;4996317;28;20018;-91
2021/12/31 07:25:38;;;;;;;3.42;2.00;;;14.20;81.80;;;;;;4999462;28;20072;-92
2021/12/31 07:28:04;;;;;;;5.10;2.17;;;14.20;81.80;;;;;;5004767;28;20026;-89
2021/12/31 07:30:29;;;;;;;4.15;1.80;;;14.20;81.80;;;;;;5003776;28;20040;-91
2021/12/31 07:32:55;;;;;;;2.10;1.55;;;14.20;81.80;;;;;;5001624;28;20527;-93
2021/12/31 07:35:21;;;;;;;3.38;1.55;;;14.10;81.80;;;;;;4995254;28;20073;-95
2021/12/31 07:37:47;;;;;;;3.35;2.00;;;14.20;81.80;;;;;;5000838;28;20053;-94
2021/12/31 07:40:13;;;;;;;3.92;1.83;;;14.10;81.70;;;;;;5003404;28;20044;-95
2021/12/31 07:42:39;;;;;;;2.65;1.77;;;14.10;81.80;;;;;;5001306;28;20556;-93
2021/12/31 07:45:05;;;;;;;3.05;1.80;;;14.10;81.90;;;;;;4998679;28;20034;-94
2021/12/31 07:47:31;;;;;;;2.75;1.65;;;14.10;81.80;;;;;;5005565;28;20026;-86
2021/12/31 07:49:57;;;;;;;3.42;2.20;;;14.00;81.80;;;;;;5015034;28;20084;-91
2021/12/31 07:52:22;;;;;;;3.92;2.10;;;14.00;81.80;;;;;;4996647;28;20022;-93
2021/12/31 07:54:48;;;;;;;3.13;2.30;;;14.00;82.00;;;;;;4994229;28;20023;-89
2021/12/31 07:57:13;;;;;;;4.35;2.38;;;13.90;81.80;;;;;;5000955;28;20037;-90
2021/12/31 07:59:39;;;;;;;4.03;2.20;;;13.90;82.00;;;;;;4993827;28;20034;-87
2021/12/31 08:02:04;;;;;;;4.18;2.40;;;13.90;82.00;;;;;;4996458;28;20030;-87
2021/12/31 08:04:30;;;;;;;4.35;2.35;;;13.90;82.00;;;;;;4991128;28;20345;-96
2021/12/31 08:06:56;;;;;;;6.30;2.65;;;13.90;82.00;;;;;;4981191;28;20034;-87
2021/12/31 08:09:21;;;;;;;3.95;2.22;;;13.90;82.10;;;;;;4989727;28;20035;-88
2021/12/31 08:11:46;;;;;;;2.92;1.80;;;13.90;82.10;;;;;;4991140;28;20030;-87
2021/12/31 08:14:12;;;;;;;4.90;2.38;;;13.80;82.10;;;;;;4992663;28;20038;-87
2021/12/31 08:16:39;;;;;;;3.65;2.20;;;13.80;82.10;;;;;;4986378;28;20429;-88
2021/12/31 08:19:06;;;;;;;4.55;2.30;;;13.80;82.20;;;;;;4988843;28;20056;-85
2021/12/31 08:21:32;;;;;;;3.80;2.03;;;13.80;82.20;;;;;;4999386;28;20163;-87
2021/12/31 08:23:58;;;;;;;4.50;2.00;;;13.80;82.30;;;;;;4992595;28;20034;-85
2021/12/31 08:26:23;;;;;;;3.50;1.98;;;13.80;82.30;;;;;;4989911;28;20034;-87
2021/12/31 08:28:49;;;;;;;3.35;1.80;;;13.80;82.40;;;;;;4990002;28;20072;-86
2021/12/31 08:31:15;;;;;;;4.75;2.05;;;13.80;82.30;;;;;;4984241;28;20034;-86
2021/12/31 08:33:40;;;;;;;4.93;2.40;;;13.80;82.20;;;;;;4994591;28;20037;-86
2021/12/31 08:36:07;;;;;;;3.05;1.90;;;13.80;82.20;;;;;;4990468;28;20034;-86
2021/12/31 08:38:33;;;;;;;4.47;2.00;;;13.70;82.20;;;;;;4989489;28;20396;-86
2021/12/31 08:41:00;;;;;;;5.40;2.50;;;13.70;82.30;;;;;;4990141;28;20109;-86
2021/12/31 08:43:26;;;;;;;4.60;2.10;;;13.70;82.30;;;;;;4993613;28;20050;-86
2021/12/31 08:45:51;;;;;;;5.72;2.05;;;13.70;82.40;;;;;;4996025;28;20057;-85
2021/12/31 08:48:17;;;;;;;3.55;2.00;;;13.80;82.40;;;;;;4992165;28;20155;-85
2021/12/31 08:50:43;;;;;;;4.07;2.17;;;13.80;82.30;;;;;;4995779;28;20130;-87
2021/12/31 08:53:08;;;;;;;3.47;1.92;;;13.70;82.30;;;;;;4998838;28;20037;-86
2021/12/31 08:55:34;;;;;;;3.60;2.22;;;13.70;82.30;;;;;;4991169;28;20690;-86
2021/12/31 08:57:59;;;;;;;4.65;2.20;;;13.70;82.20;;;;;;4989302;28;20026;-87
2021/12/31 09:00:25;;;;;;;4.15;2.20;;;13.70;82.30;;;;;;4987016;28;20030;-86
2021/12/31 09:02:50;;;;;;;4.15;2.63;;;13.70;82.30;;;;;;4991646;28;20039;-87
2021/12/31 09:05:17;;;;;;;4.07;1.90;;;13.70;82.20;;;;;;4985301;28;20030;-87
2021/12/31 09:07:43;;;;;;;2.35;1.90;;;13.70;82.30;;;;;;4990326;28;20026;-87
2021/12/31 09:10:09;;;;;;;3.58;2.15;;;13.70;82.30;;;;;;4986121;28;20047;-86
2021/12/31 09:12:36;;;;;;;6.90;4.85;;;13.70;82.30;;;;;;4979280;28;20031;-86
2021/12/31 09:15:03;;;;;;;4.22;2.28;;;13.70;82.30;;;;;;4985327;28;20041;-86
2021/12/31 09:17:28;;;;;;;4.43;2.95;;;13.70;82.20;;;;;;4986565;28;20026;-87
2021/12/31 09:19:54;;;;;;;3.97;2.42;;;13.70;82.00;;;;;;4985852;28;20041;-86
2021/12/31 09:22:19;;;;;;;3.92;2.10;;;13.70;82.00;;;;;;4991725;28;20110;-87
2021/12/31 09:24:48;;;;;;;3.58;2.10;;;13.70;81.90;;;;;;4990689;28;20385;-87
2021/12/31 09:27:13;;;;;;;2.88;2.00;;;13.70;81.90;;;;;;4991442;28;20034;-87
2021/12/31 09:29:39;;;;;;;4.10;2.33;;;13.70;81.90;;;;;;4989833;28;20113;-88
2021/12/31 09:32:05;;;;;;;5.30;2.33;;;13.70;81.90;;;;;;4982829;28;20124;-87
2021/12/31 09:34:31;;;;;;;3.55;2.50;;;13.70;81.90;;;;;;4987776;28;20597;-87
2021/12/31 09:36:56;;;;;;;3.97;2.10;;;13.70;81.90;;;;;;4994990;28;20147;-85
2021/12/31 09:39:22;;;;;;;3.58;2.00;;;13.70;81.80;;;;;;4997349;28;20104;-86
2021/12/31 09:41:47;;;;;;;4.38;2.17;;;13.80;81.80;;;;;;4999111;28;20022;-87
2021/12/31 09:44:15;;;;;;;4.93;2.60;;;13.70;81.70;;;;;;4994435;28;20524;-87
2021/12/31 09:46:42;;;;;;;3.75;2.20;;;13.70;81.70;;;;;;4990776;28;20525;-86
2021/12/31 09:49:07;;;;;;;5.10;2.75;;;13.80;81.70;;;;;;4991901;28;20085;-87
2021/12/31 09:51:34;;;;;;;2.85;1.92;;;13.80;81.60;;;;;;4987323;28;20018;-86
2021/12/31 09:54:01;;;;;;;2.75;1.90;;;13.80;81.60;;;;;;4983057;28;20469;-85
2021/12/31 09:56:27;;;;;;;5.20;2.17;;;13.80;81.60;;;;;;4985577;28;20100;-85
2021/12/31 09:58:53;;;;;;;4.40;2.22;;;13.80;81.50;;;;;;4987610;28;20545;-85
2021/12/31 10:01:19;;;;;;;4.22;2.10;;;13.80;81.50;;;;;;4990784;28;20113;-86
2021/12/31 10:03:57;;;;;;;2.60;2.05;;;13.80;81.50;;;;;;4994360;28;20045;-88
2021/12/31 10:06:24;;;;;;;3.38;1.90;;;13.80;81.50;;;;;;4983080;28;20398;-86
2021/12/31 10:08:50;;;;;;;3.65;2.00;;;13.90;81.50;;;;;;4984712;28;20028;-84
2021/12/31 10:11:18;;;;;;;2.90;1.85;;;13.90;82.20;;;;;;4985577;28;20121;-87
2021/12/31 10:13:47;;;;;;;3.88;2.45;;;13.90;81.60;;;;;;4983343;28;20026;-87
2021/12/31 10:16:32;;;;;;;2.35;1.88;;;13.90;81.40;;;;;;4985793;28;20022;-87
2021/12/31 10:19:13;;;;;;;3.80;2.25;;;13.90;81.30;;;;;;4999466;28;20112;-84
2021/12/31 10:21:41;;;;;;;3.13;1.98;;;13.90;81.30;;;;;;4984510;28;20056;-85
2021/12/31 10:24:22;;;;;;;3.10;1.65;;;14.00;81.40;;;;;;4982725;28;20074;-87
2021/12/31 10:26:47;;;;;;;5.50;2.53;;;14.00;81.30;;;;;;4987378;28;20057;-86
2021/12/31 10:29:14;;;;;;;3.95;2.20;;;14.00;81.20;;;;;;4980803;28;20485;-85
2021/12/31 10:31:51;;;;;;;2.13;1.63;;;14.00;81.20;;;;;;4978404;28;20038;-85
2021/12/31 10:34:32;;;;;;;3.22;2.03;;;13.90;81.20;;;;;;4998994;28;20165;-85
2021/12/31 10:36:59;;;;;;;3.35;2.15;;;14.00;81.20;;;;;;4989016;28;20470;-86
2021/12/31 10:39:28;;;;;;;4.50;2.80;;;14.00;81.00;;;;;;4987385;28;20022;-85
2021/12/31 10:42:06;;;;;;;2.90;2.50;;;13.90;80.90;;;;;;4981542;28;20037;-87
2021/12/31 10:44:49;;;;;;;3.08;2.30;;;14.00;81.00;;;;;;4989979;28;20025;-91
2021/12/31 10:47:23;;;;;;;3.80;1.90;;;14.00;80.90;;;;;;4989960;28;20542;-84
2021/12/31 10:50:06;;;;;;;3.60;2.17;;;14.00;80.90;;;;;;4989454;28;20033;-89
2021/12/31 10:52:44;;;;;;;2.67;2.10;;;14.00;80.90;;;;;;4989816;28;20027;-91
2021/12/31 10:55:27;;;;;;;4.07;2.30;;;14.00;81.00;;;;;;4990785;28;20114;-91
2021/12/31 10:57:57;;;;;;;4.07;2.42;;;14.00;80.90;;;;;;4999890;28;20034;-91
2021/12/31 11:00:33;;;;;;;3.83;2.22;;;14.00;80.80;;;;;;4992413;28;20387;-92
2021/12/31 11:02:59;;;;;;;4.88;2.22;;;14.00;80.80;;;;;;4962516;28;20051;-86
2021/12/31 11:05:27;;;;;;;2.50;1.90;;;14.00;80.80;;;;;;4985425;28;20050;-86
2021/12/31 11:07:58;;;;;;;4.72;2.60;;;14.00;80.70;;;;;;4993734;28;20493;-88
2021/12/31 11:10:30;;;;;;;2.08;1.60;;;14.00;80.70;;;;;;4996338;28;20033;-87
2021/12/31 11:12:56;;;;;;;3.80;1.85;;;14.00;80.70;;;;;;4989712;28;20126;-87
2021/12/31 11:15:22;;;;;;;3.65;2.28;;;14.00;80.70;;;;;;4992237;28;20765;-87
2021/12/31 11:17:52;;;;;;;3.15;2.10;;;14.00;80.60;;;;;;4998213;28;20037;-86
2021/12/31 11:20:22;;;;;;;4.38;2.42;;;14.00;80.70;;;;;;4983371;28;20042;-89
2021/12/31 11:22:48;;;;;;;4.43;2.30;;;14.00;80.70;;;;;;4991533;28;20050;-90
2021/12/31 11:25:17;;;;;;;2.22;1.90;;;14.00;80.70;;;;;;4991882;28;20073;-89
2021/12/31 11:27:51;;;;;;;3.92;2.10;;;14.00;80.60;;;;;;4988497;28;20404;-85
2021/12/31 11:30:37;;;;;;;3.47;2.20;;;14.10;80.70;;;;;;4986829;28;20026;-86
2021/12/31 11:33:08;;;;;;;3.45;1.88;;;14.10;80.70;;;;;;4991516;28;20099;-86
2021/12/31 11:35:43;;;;;;;2.33;1.77;;;14.10;80.60;;;;;;4981090;28;20093;-84
2021/12/31 11:38:37;;;;;;;2.28;1.88;;;14.10;80.60;;;;;;4984945;28;20077;-86
2021/12/31 11:41:08;;;;;;;2.53;1.88;;;14.20;80.60;;;;;;4992365;28;20026;-91
2021/12/31 11:43:35;;;;;;;2.78;1.90;;;14.20;80.50;;;;;;4991898;28;20034;-91
2021/12/31 11:46:17;;;;;;;3.97;2.35;;;14.30;80.50;;;;;;5002452;28;20401;-91
2021/12/31 11:48:43;;;;;;;5.47;2.28;;;14.30;80.40;;;;;;4987458;28;20029;-87
2021/12/31 11:51:14;;;;;;;3.15;2.20;;;14.30;80.30;;;;;;4984384;28;20038;-86
2021/12/31 11:54:00;;;;;;;3.03;2.00;;;14.30;80.30;;;;;;4988138;28;20505;-95
2021/12/31 11:56:43;;;;;;;3.33;1.98;;;14.30;80.30;;;;;;4987981;28;20120;-93
2021/12/31 11:59:19;;;;;;;2.50;1.88;;;14.30;80.40;;;;;;4990038;28;20472;-94
2021/12/31 12:02:05;;;;;;;5.03;2.63;;;14.40;80.40;;;;;;4993479;28;20033;-92
2021/12/31 12:04:33;;;;;;;2.72;2.25;;;14.40;80.20;;;;;;4981847;28;20109;-87
2021/12/31 12:07:07;;;;;;;3.88;2.08;;;14.50;80.10;;;;;;4989895;28;20041;-88
2021/12/31 12:09:35;;;;;;;5.40;2.47;;;14.50;80.00;;;;;;4992731;28;20022;-88
2021/12/31 12:12:04;;;;;;;3.60;2.28;;;14.50;79.90;;;;;;4994986;28;20703;-88
2021/12/31 12:14:45;;;;;;;2.88;1.75;;;14.50;80.00;;;;;;4987479;28;20061;-87
2021/12/31 12:17:31;;;;;;;3.95;2.10;;;14.50;80.10;;;;;;4987292;28;20121;-88
2021/12/31 12:20:05;;;;;;;3.28;2.10;;;14.50;80.50;;;;;;4988448;28;20030;-95
2021/12/31 12:22:40;;;;;;;4.47;2.60;;;14.50;81.40;;;;;;4993495;28;20053;-94
2021/12/31 12:25:07;;;;;;;4.68;2.38;;;14.50;81.00;;;;;;4996298;28;20381;-95
2021/12/31 12:27:39;;;;;;;4.35;2.80;;;14.40;81.20;;;;;;4995308;28;20041;-94
2021/12/31 12:30:08;;;;;;;5.07;3.10;;;14.40;81.40;;;;;;5000220;28;20065;-90
2021/12/31 12:32:38;;;;;;;7.63;3.90;;;14.40;81.50;;;;;;4989795;28;20101;-93
2021/12/31 12:35:14;;;;;;;6.68;4.20;;;14.40;81.60;;;;;;4992147;28;20570;-91
2021/12/31 12:37:40;;;;;;;7.75;3.92;;;14.40;81.70;;;;;;4995858;28;20030;-90
2021/12/31 12:40:06;;;;;;;3.78;2.65;;;14.40;81.70;;;;;;5002250;28;20040;-91
2021/12/31 12:42:32;;;;;;;4.22;2.83;;;14.50;81.60;;;;;;4991902;28;20038;-95
2021/12/31 12:45:06;;;;;;;4.65;2.80;;;14.60;81.60;;;;;;4998426;28;20026;-91
2021/12/31 12:47:32;;;;;;;4.45;2.50;;;14.60;81.40;;;;;;4990507;28;20525;-92
2021/12/31 12:49:59;;;;;;;3.95;2.60;;;14.70;81.30;;;;;;4999231;28;20019;-90
2021/12/31 12:52:38;;;;;;;5.55;2.75;;;14.70;81.10;;;;;;4992296;28;20112;-93